Terminal Aerodrome Forecast
Issued by NWS

Home | Current Version | Previous Version | Text Only | Print | Product List | Glossary On
Versions: 1 2 3 4 5 6 7 8 9 10 11 12 13 14 15
000
FTUS45 KRIW 021721
TAFCPR
TAF
KCPR 021721Z 0218/0318 VRB05KT P6SM -SN BKN016
     FM021900 VRB05KT P6SM VCSH SCT020 BKN040
      TEMPO 0219/0222 BKN020
     FM030100 22007KT P6SM SKC
     FM030900 22014G20KT P6SM SCT120
     FM031400 22020G30KT P6SM FEW120 SCT250=

USA.gov is the U.S. government's official web portal to all federal, state and local government web resources and services.